createdAt,value
2022-07-25T00:00:17.780Z,23.10
2022-07-25T00:02:46.472Z,23.10
2022-07-25T00:05:15.026Z,23.10
2022-07-25T00:07:43.978Z,23.10
2022-07-25T00:10:12.629Z,23.00
2022-07-25T00:12:48.865Z,23.00
2022-07-25T00:15:17.709Z,23.00
2022-07-25T00:17:46.844Z,23.00
2022-07-25T00:20:40.203Z,23.00
2022-07-25T00:23:08.934Z,23.00
2022-07-25T00:25:37.624Z,22.90
2022-07-25T00:28:08.304Z,22.80
2022-07-25T00:30:37.242Z,22.80
2022-07-25T00:33:05.798Z,22.70
2022-07-25T00:35:34.341Z,22.60
2022-07-25T00:38:02.903Z,22.60
2022-07-25T00:40:32.330Z,22.50
2022-07-25T00:43:01.758Z,22.50
2022-07-25T00:45:32.302Z,22.40
2022-07-25T00:48:01.193Z,22.40
2022-07-25T00:50:29.982Z,22.30
2022-07-25T00:52:58.728Z,22.30
2022-07-25T00:55:29.516Z,22.20
2022-07-25T00:57:58.080Z,22.20
2022-07-25T01:00:26.911Z,22.10
2022-07-25T01:02:59.551Z,22.10
2022-07-25T01:05:28.453Z,22.10
2022-07-25T01:07:58.298Z,22.00
2022-07-25T01:10:27.181Z,22.00
2022-07-25T01:12:56.929Z,22.00
2022-07-25T01:15:26.871Z,21.90
2022-07-25T01:17:55.591Z,21.90
2022-07-25T01:20:29.170Z,21.90
2022-07-25T01:22:58.572Z,21.80
2022-07-25T01:25:28.549Z,21.80
2022-07-25T01:27:57.930Z,21.90
2022-07-25T01:30:27.249Z,21.90
2022-07-25T01:32:55.810Z,21.80
2022-07-25T01:35:25.732Z,21.80
2022-07-25T01:37:54.338Z,21.70
2022-07-25T01:40:23.054Z,21.60
2022-07-25T01:42:51.548Z,21.60
2022-07-25T01:45:20.236Z,21.50
2022-07-25T01:47:48.774Z,21.40
2022-07-25T01:50:17.456Z,21.40
2022-07-25T01:52:47.617Z,21.30
2022-07-25T01:55:16.410Z,21.30
2022-07-25T01:57:49.711Z,21.20
2022-07-25T02:00:19.441Z,21.20
2022-07-25T02:02:48.517Z,21.10
2022-07-25T02:05:17.555Z,21.10
2022-07-25T02:07:47.566Z,21.10
2022-07-25T02:10:16.234Z,21.10
2022-07-25T02:12:44.832Z,21.00
2022-07-25T02:15:32.059Z,21.00
2022-07-25T02:18:25.130Z,21.00
2022-07-25T02:20:53.724Z,21.00
2022-07-25T02:23:23.765Z,20.90
2022-07-25T02:25:52.736Z,20.90
2022-07-25T02:28:21.277Z,20.80
2022-07-25T02:30:49.902Z,20.80
2022-07-25T02:33:18.539Z,20.70
2022-07-25T02:35:47.305Z,20.70
2022-07-25T02:38:22.421Z,20.70
2022-07-25T02:40:52.959Z,20.60
2022-07-25T02:43:22.293Z,20.50
2022-07-25T02:45:50.843Z,20.40
2022-07-25T02:48:19.429Z,20.40
2022-07-25T02:50:48.046Z,20.30
2022-07-25T02:53:24.646Z,20.30
2022-07-25T02:56:07.327Z,20.30
2022-07-25T02:58:36.329Z,20.30
2022-07-25T03:01:08.053Z,20.20
2022-07-25T03:03:36.884Z,20.20
2022-07-25T03:06:06.561Z,20.20
2022-07-25T03:08:35.096Z,20.10
2022-07-25T03:11:05.107Z,20.10
2022-07-25T03:13:34.253Z,20.10
2022-07-25T03:16:02.925Z,20.00
2022-07-25T03:18:31.410Z,20.00
2022-07-25T03:21:00.089Z,19.90
2022-07-25T03:23:28.666Z,19.90
2022-07-25T03:25:58.043Z,19.80
2022-07-25T03:28:28.059Z,19.80
2022-07-25T03:30:56.644Z,19.80
2022-07-25T03:33:25.166Z,19.80
2022-07-25T03:35:54.052Z,19.80
2022-07-25T03:38:22.594Z,19.80
2022-07-25T03:40:51.199Z,19.70
2022-07-25T03:43:19.893Z,19.70
2022-07-25T03:45:49.928Z,19.70
2022-07-25T03:48:18.562Z,19.80
2022-07-25T03:50:47.119Z,19.80
2022-07-25T03:53:16.347Z,19.80
2022-07-25T03:55:45.084Z,19.80
2022-07-25T03:58:13.558Z,19.90
2022-07-25T04:00:42.346Z,20.00
2022-07-25T04:03:12.479Z,20.10
2022-07-25T04:05:45.605Z,20.20
2022-07-25T04:08:16.142Z,20.30
2022-07-25T04:10:44.651Z,20.40
2022-07-25T04:13:13.195Z,20.50
2022-07-25T04:15:41.688Z,20.50
2022-07-25T04:18:12.218Z,20.60
2022-07-25T04:20:56.441Z,20.70
2022-07-25T04:23:25.009Z,20.80
2022-07-25T04:25:53.519Z,21.00
2022-07-25T04:28:22.067Z,21.10
2022-07-25T04:30:50.572Z,21.20
2022-07-25T04:33:21.274Z,21.30
2022-07-25T04:35:49.802Z,21.40
2022-07-25T04:38:18.654Z,21.50
2022-07-25T04:40:47.328Z,21.60
2022-07-25T04:43:15.897Z,21.80
2022-07-25T04:45:44.406Z,21.90
2022-07-25T04:48:12.944Z,22.00
2022-07-25T04:50:42.821Z,22.20
2022-07-25T04:53:11.303Z,22.30
2022-07-25T04:55:40.844Z,22.50
2022-07-25T04:58:09.368Z,22.60
2022-07-25T05:00:38.124Z,22.70
2022-07-25T05:03:31.244Z,22.90
2022-07-25T05:06:01.073Z,23.10
2022-07-25T05:08:30.489Z,23.30
2022-07-25T05:10:58.991Z,23.40
2022-07-25T05:13:27.779Z,23.50
2022-07-25T05:15:56.306Z,23.60
2022-07-25T05:18:24.859Z,23.70
2022-07-25T05:20:53.315Z,23.80
2022-07-25T05:23:23.362Z,23.90
2022-07-25T05:25:52.018Z,24.00
2022-07-25T05:28:20.566Z,24.10
2022-07-25T05:30:49.066Z,24.30
2022-07-25T05:33:17.707Z,24.30
2022-07-25T05:35:46.215Z,24.50
2022-07-25T05:38:14.805Z,24.60
2022-07-25T05:40:45.932Z,24.70
2022-07-25T05:43:14.428Z,24.90
2022-07-25T05:45:43.262Z,25.00
2022-07-25T05:48:12.240Z,25.10
2022-07-25T05:50:40.938Z,25.20
2022-07-25T05:53:09.885Z,25.30
2022-07-25T05:55:40.913Z,25.30
2022-07-25T05:58:11.875Z,25.40
2022-07-25T06:00:40.473Z,25.50
2022-07-25T06:03:09.066Z,25.50
2022-07-25T06:05:37.597Z,25.50
2022-07-25T06:08:06.997Z,25.50
2022-07-25T06:10:35.735Z,25.60
2022-07-25T06:13:05.975Z,25.70
2022-07-25T06:15:37.493Z,25.70
2022-07-25T06:18:06.179Z,25.90
2022-07-25T06:20:34.797Z,26.00
2022-07-25T06:23:04.939Z,26.10
2022-07-25T06:25:33.478Z,26.10
2022-07-25T06:28:02.367Z,26.20
2022-07-25T06:30:31.056Z,26.30
2022-07-25T06:33:00.949Z,26.50
2022-07-25T06:35:29.747Z,26.50
2022-07-25T06:37:58.333Z,26.60
2022-07-25T06:40:27.108Z,26.60
2022-07-25T06:42:55.924Z,26.70
2022-07-25T06:45:25.435Z,26.70
2022-07-25T06:47:54.348Z,26.80
2022-07-25T06:50:24.360Z,26.90
2022-07-25T06:52:54.653Z,27.00
2022-07-25T06:55:23.151Z,27.10
2022-07-25T06:57:51.673Z,27.30
2022-07-25T07:00:20.382Z,27.40
2022-07-25T07:02:52.174Z,27.50
2022-07-25T07:05:21.424Z,27.60
2022-07-25T07:07:51.668Z,27.70
2022-07-25T07:10:21.959Z,27.80
2022-07-25T07:12:51.797Z,27.90
2022-07-25T07:15:20.401Z,28.00
2022-07-25T07:18:14.836Z,28.20
2022-07-25T07:20:43.453Z,28.10
2022-07-25T07:23:16.652Z,28.20
2022-07-25T07:25:47.574Z,28.20
2022-07-25T07:28:17.511Z,28.20
2022-07-25T07:33:35.285Z,28.30
2022-07-25T07:36:04.220Z,28.30
2022-07-25T07:38:34.676Z,28.30
2022-07-25T07:41:03.217Z,28.40
2022-07-25T07:43:32.151Z,28.50
2022-07-25T07:46:01.834Z,28.60
2022-07-25T07:48:31.000Z,28.80
2022-07-25T07:51:00.230Z,29.00
2022-07-25T07:53:43.236Z,29.00
2022-07-25T07:56:13.322Z,29.00
2022-07-25T07:58:42.227Z,29.10
2022-07-25T08:01:10.757Z,29.20
2022-07-25T08:03:39.313Z,29.30
2022-07-25T08:06:08.707Z,29.20
2022-07-25T08:08:37.398Z,29.30
2022-07-25T08:11:06.207Z,29.30
2022-07-25T08:13:38.049Z,29.30
2022-07-25T08:16:08.174Z,29.50
2022-07-25T08:18:36.909Z,29.60
2022-07-25T08:21:07.310Z,29.70
2022-07-25T08:23:39.064Z,29.70
2022-07-25T08:26:08.734Z,29.80
2022-07-25T08:28:38.635Z,29.90
2022-07-25T08:31:07.732Z,30.00
2022-07-25T08:33:36.400Z,30.10
2022-07-25T08:36:05.471Z,30.20
2022-07-25T08:38:35.445Z,30.20
2022-07-25T08:41:05.145Z,30.20
2022-07-25T08:43:35.043Z,30.30
2022-07-25T08:46:08.537Z,30.40
2022-07-25T08:48:39.071Z,30.40
2022-07-25T08:51:09.225Z,30.60
2022-07-25T08:53:38.349Z,30.60
2022-07-25T08:56:13.791Z,30.70
2022-07-25T08:59:06.750Z,30.70
2022-07-25T09:01:37.231Z,30.50
2022-07-25T09:04:08.755Z,30.60
2022-07-25T09:06:37.601Z,30.60
2022-07-25T09:09:06.165Z,30.70
2022-07-25T09:11:37.287Z,30.80
2022-07-25T09:14:09.229Z,31.00
2022-07-25T09:16:43.167Z,31.20
2022-07-25T09:19:17.111Z,31.30
2022-07-25T09:22:01.467Z,31.30
2022-07-25T09:24:31.047Z,31.30
2022-07-25T09:27:02.598Z,31.20
2022-07-25T09:29:33.972Z,31.10
2022-07-25T09:32:16.252Z,31.00
2022-07-25T09:34:47.146Z,31.10
2022-07-25T09:37:18.661Z,31.30
2022-07-25T09:39:50.441Z,31.20
2022-07-25T09:42:25.521Z,31.10
2022-07-25T09:45:11.481Z,31.20
2022-07-25T09:47:58.143Z,31.50
2022-07-25T09:50:30.300Z,31.50
2022-07-25T09:53:02.020Z,31.70
2022-07-25T09:55:32.054Z,31.70
2022-07-25T09:58:00.696Z,31.50
2022-07-25T10:00:30.888Z,31.30
2022-07-25T10:03:19.034Z,31.30
2022-07-25T10:06:13.500Z,31.60
2022-07-25T10:08:43.023Z,31.80
2022-07-25T10:11:22.209Z,31.90
2022-07-25T10:13:51.323Z,31.80
2022-07-25T10:16:22.878Z,31.70
2022-07-25T10:18:55.885Z,31.80
2022-07-25T10:21:28.314Z,32.00
2022-07-25T10:24:04.243Z,32.10
2022-07-25T10:26:35.809Z,32.20
2022-07-25T10:29:10.492Z,32.30
2022-07-25T10:31:50.025Z,32.40
2022-07-25T10:34:31.635Z,32.60
2022-07-25T10:37:13.993Z,32.60
2022-07-25T10:39:45.219Z,32.70
2022-07-25T10:42:19.471Z,32.70
2022-07-25T10:44:52.597Z,32.60
2022-07-25T10:47:28.702Z,32.50
2022-07-25T10:53:01.792Z,32.70
2022-07-25T10:55:31.062Z,32.90
2022-07-25T10:58:21.621Z,33.00
2022-07-25T11:00:51.318Z,33.10
2022-07-25T11:03:21.439Z,33.30
2022-07-25T11:05:54.687Z,33.20
2022-07-25T11:08:33.189Z,32.80
2022-07-25T11:11:01.774Z,32.50
2022-07-25T11:13:32.003Z,32.10
2022-07-25T11:16:00.589Z,31.90
2022-07-25T11:18:38.002Z,31.80
2022-07-25T11:21:10.288Z,32.00
2022-07-25T11:23:38.857Z,32.20
2022-07-25T11:26:10.613Z,32.20
2022-07-25T11:28:42.213Z,32.30
2022-07-25T11:31:12.066Z,32.40
2022-07-25T11:33:42.453Z,32.50
2022-07-25T11:36:16.241Z,32.60
2022-07-25T11:39:12.242Z,32.70
2022-07-25T11:41:43.463Z,32.70
2022-07-25T11:44:11.942Z,32.80
2022-07-25T11:46:45.183Z,32.90
2022-07-25T11:49:15.012Z,33.00
2022-07-25T11:51:46.158Z,33.00
2022-07-25T11:54:16.780Z,33.10
2022-07-25T11:56:47.212Z,33.30
2022-07-25T11:59:15.779Z,33.30
2022-07-25T12:01:45.419Z,33.40
2022-07-25T12:04:16.750Z,33.30
2022-07-25T12:06:48.992Z,33.40
2022-07-25T12:09:20.549Z,33.40
2022-07-25T12:11:50.564Z,33.50
2022-07-25T12:14:20.173Z,33.50
2022-07-25T12:16:48.745Z,33.60
2022-07-25T12:19:23.041Z,33.70
2022-07-25T12:21:52.956Z,33.70
2022-07-25T12:24:21.400Z,33.50
2022-07-25T12:27:14.770Z,33.20
2022-07-25T12:29:43.420Z,32.80
2022-07-25T12:32:37.869Z,32.70
2022-07-25T12:35:09.512Z,32.80
2022-07-25T12:37:40.162Z,32.90
2022-07-25T12:40:10.979Z,33.00
2022-07-25T12:42:39.915Z,33.10
2022-07-25T12:45:09.823Z,33.10
2022-07-25T12:47:39.043Z,33.10
2022-07-25T12:50:08.789Z,33.20
2022-07-25T12:52:39.280Z,33.30
2022-07-25T12:55:10.383Z,33.40
2022-07-25T12:57:39.284Z,33.50
2022-07-25T13:00:32.601Z,33.60
2022-07-25T13:03:01.188Z,33.60
2022-07-25T13:05:30.661Z,33.60
2022-07-25T13:08:00.695Z,33.60
2022-07-25T13:10:54.875Z,33.60
2022-07-25T13:13:23.371Z,33.50
2022-07-25T13:15:52.138Z,33.40
2022-07-25T13:18:20.655Z,33.40
2022-07-25T13:20:49.137Z,33.30
2022-07-25T13:23:20.921Z,33.20
2022-07-25T13:25:49.590Z,33.20
2022-07-25T13:28:24.295Z,33.20
2022-07-25T13:30:53.590Z,33.30
2022-07-25T13:33:22.349Z,33.30
2022-07-25T13:35:50.857Z,33.40
2022-07-25T13:38:20.909Z,33.30
2022-07-25T13:40:49.483Z,33.30
2022-07-25T13:43:18.252Z,33.30
2022-07-25T13:45:47.825Z,33.20
2022-07-25T13:48:29.505Z,32.80
2022-07-25T13:51:03.343Z,32.60
2022-07-25T13:53:33.257Z,32.60
2022-07-25T13:56:02.050Z,32.70
2022-07-25T13:58:30.799Z,32.70
2022-07-25T14:00:59.700Z,32.80
2022-07-25T14:03:28.183Z,32.90
2022-07-25T14:05:57.174Z,32.90
2022-07-25T14:08:26.387Z,32.80
2022-07-25T14:10:56.489Z,32.80
2022-07-25T14:13:25.321Z,32.70
2022-07-25T14:15:54.021Z,32.50
2022-07-25T14:18:22.598Z,32.50
2022-07-25T14:20:51.312Z,32.60
2022-07-25T14:23:19.836Z,32.50
2022-07-25T14:25:48.345Z,32.30
2022-07-25T14:28:18.526Z,32.10
2022-07-25T14:30:47.067Z,32.10
2022-07-25T14:33:15.535Z,32.20
2022-07-25T14:35:45.890Z,32.30
2022-07-25T14:38:14.745Z,32.30
2022-07-25T14:40:43.820Z,32.40
2022-07-25T14:43:12.743Z,32.50
2022-07-25T14:45:44.154Z,32.50
2022-07-25T14:48:12.676Z,32.60
2022-07-25T14:50:41.364Z,32.60
2022-07-25T14:53:10.052Z,32.60
2022-07-25T14:55:38.919Z,32.60
2022-07-25T14:58:07.603Z,32.60
2022-07-25T15:00:36.240Z,32.60
2022-07-25T15:03:06.136Z,32.60
2022-07-25T15:05:35.606Z,32.60
2022-07-25T15:08:04.090Z,32.60
2022-07-25T15:10:32.713Z,32.70
2022-07-25T15:13:29.431Z,32.70
2022-07-25T15:15:50.739Z,32.70
2022-07-25T15:18:21.082Z,32.60
2022-07-25T15:20:55.440Z,32.60
2022-07-25T15:23:48.597Z,32.50
2022-07-25T15:26:17.510Z,32.40
2022-07-25T15:28:46.039Z,32.30
2022-07-25T15:31:14.715Z,32.20
2022-07-25T15:33:44.633Z,32.10
2022-07-25T15:36:14.312Z,32.10
2022-07-25T15:38:43.122Z,32.10
2022-07-25T15:41:13.872Z,32.00
2022-07-25T15:43:42.330Z,32.10
2022-07-25T15:46:14.161Z,32.10
2022-07-25T15:48:45.423Z,32.10
2022-07-25T15:51:17.824Z,32.20
2022-07-25T15:53:49.559Z,32.20
2022-07-25T15:56:18.430Z,32.10
2022-07-25T15:58:50.249Z,32.10
2022-07-25T16:01:19.251Z,32.10
2022-07-25T16:03:49.442Z,32.10
2022-07-25T16:06:20.820Z,32.00
2022-07-25T16:08:50.391Z,32.00
2022-07-25T16:11:19.159Z,31.90
2022-07-25T16:13:47.697Z,31.70
2022-07-25T16:16:16.227Z,31.60
2022-07-25T16:18:44.885Z,31.50
2022-07-25T16:21:14.931Z,31.30
2022-07-25T16:23:45.482Z,31.10
2022-07-25T16:26:14.740Z,31.00
2022-07-25T16:28:43.442Z,30.90
2022-07-25T16:31:12.122Z,30.80
2022-07-25T16:33:41.129Z,30.80
2022-07-25T16:36:12.489Z,30.70
2022-07-25T16:38:43.346Z,30.70
2022-07-25T16:41:11.954Z,30.70
2022-07-25T16:43:40.564Z,30.60
2022-07-25T16:46:09.402Z,30.50
2022-07-25T16:48:38.940Z,30.50
2022-07-25T16:51:07.907Z,30.40
2022-07-25T16:53:36.959Z,30.30
2022-07-25T16:56:07.524Z,30.20
2022-07-25T16:58:36.219Z,30.10
2022-07-25T17:01:05.097Z,29.90
2022-07-25T17:03:33.598Z,29.70
2022-07-25T17:06:02.390Z,29.50
2022-07-25T17:08:31.977Z,29.30
2022-07-25T17:11:00.748Z,29.20
2022-07-25T17:13:31.109Z,29.00
2022-07-25T17:15:59.739Z,28.80
2022-07-25T17:18:28.445Z,28.70
2022-07-25T17:20:57.201Z,28.60
2022-07-25T17:23:26.141Z,28.40
2022-07-25T17:25:54.828Z,28.40
2022-07-25T17:28:24.085Z,28.30
2022-07-25T17:31:21.564Z,28.20
2022-07-25T17:33:50.104Z,28.10
2022-07-25T17:36:18.715Z,28.00
2022-07-25T17:38:47.355Z,27.80
2022-07-25T17:41:15.930Z,27.60
2022-07-25T17:43:44.553Z,27.50
2022-07-25T17:46:14.049Z,27.30
2022-07-25T17:48:44.391Z,27.20
2022-07-25T17:51:21.933Z,27.10
2022-07-25T17:53:50.529Z,27.00
2022-07-25T17:56:19.252Z,26.90
2022-07-25T17:58:47.790Z,26.80
2022-07-25T18:01:16.350Z,26.70
2022-07-25T18:03:47.643Z,26.50
2022-07-25T18:06:17.252Z,26.50
2022-07-25T18:08:46.009Z,26.30
2022-07-25T18:11:14.616Z,26.20
2022-07-25T18:13:43.191Z,26.10
2022-07-25T18:16:11.951Z,26.00
2022-07-25T18:18:41.540Z,25.80
2022-07-25T18:21:11.466Z,25.70
2022-07-25T18:23:39.946Z,25.60
2022-07-25T18:26:08.452Z,25.40
2022-07-25T18:28:37.409Z,25.30
2022-07-25T18:31:31.167Z,25.20
2022-07-25T18:33:59.910Z,25.10
2022-07-25T18:36:30.947Z,25.00
2022-07-25T18:38:59.533Z,24.80
2022-07-25T18:41:29.858Z,24.60
2022-07-25T18:43:59.126Z,24.60
2022-07-25T18:46:30.319Z,24.40
2022-07-25T18:49:00.376Z,24.20
2022-07-25T18:51:30.624Z,24.00
2022-07-25T18:53:59.115Z,23.90
2022-07-25T18:56:27.660Z,23.70
2022-07-25T18:58:56.239Z,23.60
2022-07-25T19:01:51.207Z,23.50
2022-07-25T19:04:45.174Z,23.30
2022-07-25T19:07:15.216Z,23.20
2022-07-25T19:09:43.729Z,23.10
2022-07-25T19:12:12.238Z,23.00
2022-07-25T19:14:40.836Z,22.90
2022-07-25T19:17:09.514Z,22.80
2022-07-25T19:19:38.359Z,22.60
2022-07-25T19:22:07.982Z,22.60
2022-07-25T19:24:38.099Z,22.50
2022-07-25T19:27:07.130Z,22.40
2022-07-25T19:29:35.686Z,22.30
2022-07-25T19:32:04.588Z,22.20
2022-07-25T19:34:33.063Z,22.20
2022-07-25T19:37:01.719Z,22.10
2022-07-25T19:39:30.317Z,22.00
2022-07-25T19:42:00.320Z,22.00
2022-07-25T19:44:29.030Z,21.90
2022-07-25T19:46:58.698Z,21.90
2022-07-25T19:49:27.276Z,21.80
2022-07-25T19:51:57.948Z,21.80
2022-07-25T19:54:32.576Z,21.80
2022-07-25T19:57:02.612Z,21.80
2022-07-25T19:59:31.402Z,21.80
2022-07-25T20:02:00.286Z,21.80
2022-07-25T20:04:28.938Z,21.80
2022-07-25T20:06:57.596Z,21.80
2022-07-25T20:09:26.274Z,21.80
2022-07-25T20:11:56.477Z,21.80
2022-07-25T20:14:26.365Z,21.80
2022-07-25T20:16:54.962Z,21.80
2022-07-25T20:19:23.564Z,21.70
2022-07-25T20:21:52.262Z,21.70
2022-07-25T20:24:21.885Z,21.70
2022-07-25T20:26:50.678Z,21.60
2022-07-25T20:29:19.701Z,21.60
2022-07-25T20:31:50.081Z,21.50
2022-07-25T20:34:19.506Z,21.40
2022-07-25T20:36:48.351Z,21.40
2022-07-25T20:39:16.920Z,21.40
2022-07-25T20:41:46.663Z,21.30
2022-07-25T20:44:30.613Z,21.20
2022-07-25T20:47:00.597Z,21.10
2022-07-25T20:49:29.346Z,21.10
2022-07-25T20:51:57.862Z,21.10
2022-07-25T20:54:26.506Z,21.10
2022-07-25T20:56:54.999Z,21.10
2022-07-25T20:59:23.476Z,21.00
2022-07-25T21:01:52.181Z,21.00
2022-07-25T21:04:22.180Z,20.90
2022-07-25T21:06:50.888Z,20.90
2022-07-25T21:09:45.368Z,20.90
2022-07-25T21:12:14.048Z,20.70
2022-07-25T21:15:09.415Z,20.90
2022-07-25T21:17:37.886Z,20.90
2022-07-25T21:20:11.080Z,20.90
2022-07-25T21:22:40.268Z,20.90
2022-07-25T21:25:09.857Z,20.80
2022-07-25T21:27:38.862Z,20.80
2022-07-25T21:30:11.260Z,20.80
2022-07-25T21:32:41.630Z,20.70
2022-07-25T21:35:12.182Z,20.70
2022-07-25T21:37:40.916Z,20.60
2022-07-25T21:40:11.178Z,20.50
2022-07-25T21:42:39.770Z,20.50
2022-07-25T21:45:09.552Z,20.50
2022-07-25T21:47:38.017Z,20.50
2022-07-25T21:50:25.531Z,20.40
2022-07-25T21:52:56.061Z,20.40
2022-07-25T21:55:25.199Z,20.30
2022-07-25T21:57:53.756Z,20.30
2022-07-25T22:00:22.697Z,20.20
2022-07-25T22:02:51.516Z,20.20
2022-07-25T22:05:22.183Z,20.20
2022-07-25T22:07:50.941Z,20.20
2022-07-25T22:10:22.856Z,20.20
2022-07-25T22:12:52.680Z,20.20
2022-07-25T22:15:21.423Z,20.10
2022-07-25T22:17:50.291Z,20.10
2022-07-25T22:20:19.388Z,20.10
2022-07-25T22:22:48.438Z,20.10
2022-07-25T22:25:17.411Z,20.00
2022-07-25T22:27:47.692Z,20.00
2022-07-25T22:30:19.441Z,19.90
2022-07-25T22:32:48.614Z,19.90
2022-07-25T22:35:17.425Z,19.80
2022-07-25T22:37:47.078Z,19.80
2022-07-25T22:40:16.156Z,19.70
2022-07-25T22:42:46.183Z,19.70
2022-07-25T22:45:14.697Z,19.70
2022-07-25T22:47:43.248Z,19.70
2022-07-25T22:50:12.203Z,19.70
2022-07-25T22:52:40.719Z,19.70
2022-07-25T22:55:10.731Z,19.70
2022-07-25T22:57:39.271Z,19.60
2022-07-25T23:00:13.058Z,19.50
2022-07-25T23:02:42.277Z,19.50
2022-07-25T23:05:11.390Z,19.50
2022-07-25T23:07:40.187Z,19.50
2022-07-25T23:10:10.356Z,19.50
2022-07-25T23:12:39.027Z,19.40
2022-07-25T23:15:10.313Z,19.40
2022-07-25T23:17:38.799Z,19.40
2022-07-25T23:20:09.151Z,19.40
2022-07-25T23:22:38.063Z,19.40
2022-07-25T23:25:10.530Z,19.30
2022-07-25T23:27:39.729Z,19.20
2022-07-25T23:30:18.712Z,19.20
2022-07-25T23:32:47.250Z,19.10
2022-07-25T23:35:15.997Z,19.10
2022-07-25T23:37:44.570Z,19.10
2022-07-25T23:40:15.006Z,19.20
2022-07-25T23:42:46.824Z,19.10
2022-07-25T23:45:29.996Z,19.10
2022-07-25T23:47:59.085Z,19.10
2022-07-25T23:50:27.557Z,19.10
2022-07-25T23:52:56.062Z,19.10
2022-07-25T23:55:24.708Z,19.00
2022-07-25T23:57:53.229Z,19.10
